Terminal Aerodrome Forecast
Issued by NWS

Home | Current Version | Previous Version | Text Only | Print | Product List | Glossary On
Versions: 1 2 3 4 5 6 7 8 9 10 11 12 13 14 15
000
FTUS45 KRIW 041720
TAFJAC
TAF
KJAC 041720Z 0418/0518 18009KT P6SM FEW080
     FM041900 20017G28KT P6SM SCT090
     FM050100 22008G16KT P6SM VCTS SCT080CB BKN100
     FM050700 19008KT P6SM VCSH SCT060 BKN080
     FM051000 20006KT P6SM SCT060
     FM051600 19015G25KT P6SM FEW070 BKN100
      AMD LTD TO CLD VIS AND WIND=

USA.gov is the U.S. government's official web portal to all federal, state and local government web resources and services.